createdAt,value
2017-11-16T00:00:29.268Z,42.73
2017-11-16T00:05:30.964Z,31.37
2017-11-16T00:10:32.640Z,35.40
2017-11-16T00:15:34.348Z,32.97
2017-11-16T00:20:36.025Z,41.93
2017-11-16T00:25:37.686Z,36.60
2017-11-16T00:30:39.487Z,34.57
2017-11-16T00:35:41.185Z,29.33
2017-11-16T00:40:42.888Z,35.30
2017-11-16T00:45:44.538Z,30.83
2017-11-16T00:50:46.209Z,29.67
2017-11-16T00:55:47.942Z,31.97
2017-11-16T01:00:50.406Z,30.50
2017-11-16T01:05:52.136Z,27.33
2017-11-16T01:10:53.819Z,21.30
2017-11-16T01:15:55.492Z,38.67
2017-11-16T01:20:57.501Z,30.33
2017-11-16T01:25:59.192Z,35.37
2017-11-16T01:31:01.668Z,27.30
2017-11-16T01:36:03.336Z,41.43
2017-11-16T01:41:05.074Z,33.13
2017-11-16T01:46:07.540Z,23.77
2017-11-16T01:51:09.218Z,27.87
2017-11-16T01:56:10.927Z,24.97
2017-11-16T02:01:12.715Z,29.73
2017-11-16T02:06:14.439Z,29.03
2017-11-16T02:11:16.260Z,30.63
2017-11-16T02:16:17.943Z,27.47
2017-11-16T02:21:20.477Z,29.73
2017-11-16T02:26:22.791Z,27.37
2017-11-16T02:31:25.313Z,25.30
2017-11-16T02:36:28.552Z,26.43
2017-11-16T02:41:31.008Z,29.23
2017-11-16T02:46:33.563Z,25.20
2017-11-16T02:51:36.046Z,33.73
2017-11-16T02:56:38.533Z,29.80
2017-11-16T03:01:41.130Z,23.33
2017-11-16T03:06:42.879Z,27.50
2017-11-16T03:11:44.579Z,28.07
2017-11-16T03:16:46.693Z,25.13
2017-11-16T03:21:48.391Z,25.93
2017-11-16T03:26:50.110Z,26.03
2017-11-16T03:31:51.812Z,27.23
2017-11-16T03:36:53.543Z,25.53
2017-11-16T03:41:55.997Z,30.73
2017-11-16T03:46:57.685Z,26.50
2017-11-16T03:51:59.430Z,27.73
2017-11-16T03:57:01.290Z,28.43
2017-11-16T04:02:03.055Z,26.17
2017-11-16T04:07:04.739Z,25.77
2017-11-16T04:12:06.459Z,25.13
2017-11-16T04:17:08.915Z,23.80
2017-11-16T04:22:10.701Z,29.30
2017-11-16T04:27:12.403Z,31.80
2017-11-16T04:32:17.265Z,29.40
2017-11-16T04:37:19.555Z,26.13
2017-11-16T04:42:21.291Z,28.87
2017-11-16T04:47:23.000Z,27.83
2017-11-16T04:52:24.671Z,29.97
2017-11-16T04:57:26.395Z,29.13
2017-11-16T05:02:28.164Z,46.43
2017-11-16T05:07:30.601Z,28.93
2017-11-16T05:12:32.596Z,28.37
2017-11-16T05:17:34.276Z,30.80
2017-11-16T05:22:36.837Z,28.37
2017-11-16T05:27:38.580Z,28.00
2017-11-16T05:32:41.030Z,30.43
2017-11-16T05:37:42.730Z,30.47
2017-11-16T05:42:44.447Z,29.60
2017-11-16T05:47:46.139Z,30.70
2017-11-16T05:52:47.887Z,26.47
2017-11-16T05:57:49.618Z,29.87
2017-11-16T06:02:51.369Z,29.27
2017-11-16T06:07:53.055Z,25.67
2017-11-16T06:12:54.755Z,25.30
2017-11-16T06:17:56.785Z,29.17
2017-11-16T06:22:59.224Z,22.87
2017-11-16T06:28:01.051Z,31.23
2017-11-16T06:33:02.818Z,32.53
2017-11-16T06:38:05.244Z,22.80
2017-11-16T06:43:06.985Z,21.63
2017-11-16T06:48:08.713Z,19.77
2017-11-16T06:53:11.156Z,22.63
2017-11-16T06:58:12.875Z,23.83
2017-11-16T07:03:14.627Z,19.93
2017-11-16T07:08:17.066Z,25.80
2017-11-16T07:13:18.759Z,20.43
2017-11-16T07:18:20.467Z,21.77
2017-11-16T07:23:22.143Z,19.53
2017-11-16T07:28:24.550Z,21.87
2017-11-16T07:33:26.955Z,27.10
2017-11-16T07:38:28.642Z,20.83
2017-11-16T07:43:30.329Z,22.63
2017-11-16T07:48:32.033Z,17.73
2017-11-16T07:53:33.759Z,22.17
2017-11-16T07:58:36.263Z,18.63
2017-11-16T08:03:37.931Z,20.03
2017-11-16T08:08:39.619Z,21.43
2017-11-16T08:13:42.010Z,21.30
2017-11-16T08:18:43.684Z,20.30
2017-11-16T08:23:46.137Z,18.80
2017-11-16T08:28:47.860Z,19.30
2017-11-16T08:33:49.602Z,20.40
2017-11-16T08:38:52.062Z,18.50
2017-11-16T08:43:53.772Z,19.10
2017-11-16T08:48:55.519Z,19.97
2017-11-16T08:53:57.276Z,16.33
2017-11-16T08:58:59.047Z,19.03
2017-11-16T09:04:00.760Z,18.47
2017-11-16T09:09:02.553Z,18.77
2017-11-16T09:14:04.296Z,20.70
2017-11-16T09:19:06.775Z,18.83
2017-11-16T09:24:15.374Z,26.93
2017-11-16T09:29:17.135Z,29.70
2017-11-16T09:34:18.896Z,16.70
2017-11-16T09:39:20.615Z,15.80
2017-11-16T09:44:22.418Z,20.90
2017-11-16T09:49:24.123Z,15.60
2017-11-16T09:54:25.868Z,19.10
2017-11-16T09:59:28.347Z,16.67
2017-11-16T10:04:30.033Z,22.23
2017-11-16T10:09:31.752Z,18.30
2017-11-16T10:14:33.467Z,16.80
2017-11-16T10:19:35.144Z,26.83
2017-11-16T10:24:36.854Z,17.60
2017-11-16T10:29:38.595Z,18.37
2017-11-16T10:34:40.303Z,19.67
2017-11-16T10:39:41.994Z,22.50
2017-11-16T10:44:43.767Z,15.80
2017-11-16T10:49:46.325Z,15.83
2017-11-16T10:54:48.030Z,16.53
2017-11-16T10:59:49.765Z,22.50
2017-11-16T11:04:51.444Z,18.30
2017-11-16T11:09:53.129Z,18.97
2017-11-16T11:14:54.827Z,16.33
2017-11-16T11:19:56.522Z,19.10
2017-11-16T11:24:58.205Z,20.97
2017-11-16T11:29:59.927Z,17.07
2017-11-16T11:35:01.647Z,20.53
2017-11-16T11:40:03.339Z,18.30
2017-11-16T11:45:05.023Z,17.47
2017-11-16T11:50:06.774Z,19.20
2017-11-16T11:55:08.470Z,18.90
2017-11-16T12:00:10.195Z,16.73
2017-11-16T12:05:11.926Z,20.70
2017-11-16T12:10:13.603Z,19.40
2017-11-16T12:15:15.308Z,19.13
2017-11-16T12:20:17.024Z,15.93
2017-11-16T12:25:18.825Z,16.97
2017-11-16T12:30:20.573Z,33.70
2017-11-16T12:35:22.327Z,18.63
2017-11-16T12:40:24.074Z,18.00
2017-11-16T12:45:25.821Z,19.07
2017-11-16T12:50:27.976Z,16.30
2017-11-16T12:55:29.723Z,19.90
2017-11-16T13:00:31.511Z,17.17
2017-11-16T13:05:33.235Z,20.17
2017-11-16T13:10:34.936Z,22.77
2017-11-16T13:15:36.674Z,24.47
2017-11-16T13:20:38.364Z,22.13
2017-11-16T13:25:40.049Z,23.43
2017-11-16T13:30:42.376Z,22.10
2017-11-16T13:35:44.048Z,28.97
2017-11-16T13:40:46.476Z,22.73
2017-11-16T13:45:48.908Z,20.50
2017-11-16T13:50:50.597Z,23.20
2017-11-16T13:55:52.268Z,29.90
2017-11-16T14:00:54.047Z,21.77
2017-11-16T14:05:55.899Z,22.10
2017-11-16T14:10:57.564Z,24.03
2017-11-16T14:15:59.991Z,24.43
2017-11-16T14:21:02.475Z,23.30
2017-11-16T14:26:04.154Z,29.13
2017-11-16T14:31:05.848Z,22.30
2017-11-16T14:36:08.029Z,33.53
2017-11-16T14:41:09.691Z,27.50
2017-11-16T14:46:11.460Z,29.77
2017-11-16T14:51:13.173Z,26.90
2017-11-16T14:56:14.891Z,25.53
2017-11-16T15:01:17.366Z,26.37
2017-11-16T15:06:19.072Z,23.83
2017-11-16T15:11:20.797Z,27.17
2017-11-16T15:16:22.535Z,25.77
2017-11-16T15:21:24.236Z,25.70
2017-11-16T15:26:26.142Z,28.50
2017-11-16T15:31:27.836Z,27.53
2017-11-16T15:36:29.536Z,27.47
2017-11-16T15:41:31.230Z,24.87
2017-11-16T15:46:32.927Z,28.93
2017-11-16T15:51:34.639Z,25.80
2017-11-16T15:56:36.332Z,26.33
2017-11-16T16:01:38.062Z,27.43
2017-11-16T16:06:39.785Z,21.23
2017-11-16T16:11:42.271Z,26.50
2017-11-16T16:16:43.990Z,25.37
2017-11-16T16:21:45.687Z,25.30
2017-11-16T16:26:47.388Z,27.23
2017-11-16T16:31:49.066Z,36.27
2017-11-16T16:36:50.771Z,24.57
2017-11-16T16:41:52.476Z,23.37
2017-11-16T16:46:54.220Z,42.67
2017-11-16T16:51:55.974Z,21.70
2017-11-16T16:56:57.698Z,26.17
2017-11-16T17:01:59.447Z,26.33
2017-11-16T17:07:01.160Z,26.10
2017-11-16T17:12:07.544Z,26.30
2017-11-16T17:17:09.524Z,24.93
2017-11-16T17:22:11.222Z,25.67
2017-11-16T17:27:12.986Z,26.10
2017-11-16T17:32:14.684Z,24.27
2017-11-16T17:37:16.398Z,26.37
2017-11-16T17:42:18.824Z,27.23
2017-11-16T17:47:20.634Z,28.10
2017-11-16T17:52:22.364Z,26.07
2017-11-16T17:57:24.049Z,26.10
2017-11-16T18:02:25.839Z,26.20
2017-11-16T18:07:27.580Z,23.10
2017-11-16T18:12:29.294Z,28.90
2017-11-16T18:17:30.981Z,26.90
2017-11-16T18:22:33.738Z,27.53
2017-11-16T18:27:36.373Z,27.07
2017-11-16T18:32:39.012Z,34.37
2017-11-16T18:37:41.729Z,33.17
2017-11-16T18:42:44.410Z,38.07
2017-11-16T18:47:51.612Z,36.37
2017-11-16T18:52:55.360Z,35.57
2017-11-16T18:57:57.976Z,35.87
2017-11-16T19:03:00.619Z,34.87
2017-11-16T19:08:04.059Z,31.30
2017-11-16T19:13:07.346Z,37.50
2017-11-16T19:18:09.806Z,44.00
2017-11-16T19:23:12.355Z,47.80
2017-11-16T19:28:14.942Z,47.87
2017-11-16T19:33:17.469Z,50.53
2017-11-16T19:38:20.693Z,49.47
2017-11-16T19:43:23.605Z,52.77
2017-11-16T19:48:26.065Z,50.43
2017-11-16T19:53:28.370Z,40.80
2017-11-16T19:58:30.382Z,46.70
2017-11-16T20:03:34.132Z,47.17
2017-11-16T20:08:37.977Z,48.30
2017-11-16T20:13:40.027Z,51.70
2017-11-16T20:18:41.933Z,54.07
2017-11-16T20:23:44.004Z,54.63
2017-11-16T20:28:45.685Z,53.00
2017-11-16T20:33:48.275Z,46.57
2017-11-16T20:44:45.469Z,49.27
2017-11-16T20:55:40.110Z,49.30
2017-11-16T21:00:44.466Z,58.37
2017-11-16T21:05:49.510Z,62.83
2017-11-16T21:10:52.570Z,60.13
2017-11-16T21:15:55.176Z,61.27
2017-11-16T21:20:57.466Z,53.97
2017-11-16T21:25:59.907Z,61.43
2017-11-16T21:31:02.416Z,65.23
2017-11-16T21:36:04.932Z,61.40
2017-11-16T21:41:07.461Z,66.20
2017-11-16T21:46:10.041Z,68.00
2017-11-16T21:51:13.333Z,72.40
2017-11-16T21:56:15.826Z,69.20
2017-11-16T22:01:18.268Z,73.77
2017-11-16T22:06:20.501Z,79.13
2017-11-16T22:11:22.795Z,71.30
2017-11-16T22:16:25.153Z,80.13
2017-11-16T22:21:28.249Z,79.07
2017-11-16T22:26:30.326Z,79.10
2017-11-16T22:31:32.484Z,90.03
2017-11-16T22:36:34.183Z,75.53
2017-11-16T22:41:35.855Z,75.07
2017-11-16T22:46:37.587Z,78.50
2017-11-16T22:51:40.025Z,85.40
2017-11-16T22:56:41.717Z,89.93
2017-11-16T23:01:43.448Z,77.63
2017-11-16T23:06:45.132Z,79.00
2017-11-16T23:11:46.859Z,76.03
2017-11-16T23:16:48.529Z,94.93
2017-11-16T23:21:50.219Z,85.13
2017-11-16T23:26:51.897Z,94.40
2017-11-16T23:31:53.576Z,105.50
2017-11-16T23:36:55.231Z,114.10
2017-11-16T23:41:56.902Z,103.73
2017-11-16T23:46:58.597Z,115.00
2017-11-16T23:52:00.301Z,109.73
2017-11-16T23:57:01.995Z,124.03
